Terminal Aerodrome Forecast
Issued by NWS

Home | Current Version | Previous Version | Text Only | Print | Product List | Glossary On
Versions: 1 2 3 4 5 6 7 8 9 10 11 12 13 14
000
FTUS46 KMTR 311735
TAFSTS
TAF
KSTS 311735Z 3118/0118 VRB03KT P6SM FEW015 SCT200
     FM312100 18008KT P6SM SCT200
     FM010000 16011KT P6SM FEW200
     FM010500 16005KT P6SM BKN008
     FM010900 18002KT P6SM OVC007=

USA.gov is the U.S. government's official web portal to all federal, state and local government web resources and services.